Tufão MAC 1982: trajetória, intensidade e histórico
12/10/1982, 12:00:00
29/09/1982, 00:00:00 – 12/10/1982, 12:00:00
Trajetória histórica
Acompanhe a evolução e o deslocamento de Tufão MAC em 1982, com a trajetória completa registrada, ventos máximos sustentados de 140 nós, pressão central mínima e cronologia detalhada.
| Data | Hora | Tipo | Ventokm/h | PressãohPa |
|---|---|---|---|---|
| 12/10 | 12:00 | EXCiclone extratropical | -- | 1018 |
| 12/10 | 09:00 | EXCiclone extratropical | -- | 1017 |
| 12/10 | 06:00 | EXCiclone extratropical | -- | 1016 |
| 12/10 | 03:00 | EXCiclone extratropical | -- | 1015 |
| 12/10 | 00:00 | EXCiclone extratropical | -- | 1014 |
| 11/10 | 21:00 | EXCiclone extratropical | -- | 1014 |
| 11/10 | 18:00 | EXCiclone extratropical | -- | 1014 |
| 11/10 | 15:00 | EXCiclone extratropical | -- | 1014 |
| 11/10 | 12:00 | EXCiclone extratropical | -- | 1014 |
| 11/10 | 09:00 | EXCiclone extratropical | -- | 1014 |
| 11/10 | 06:00 | EXCiclone extratropical | -- | 1014 |
| 11/10 | 03:00 | EXCiclone extratropical | -- | 1013 |
| 11/10 | 00:00 | EXCiclone extratropical | -- | 1012 |
| 10/10 | 21:00 | EXCiclone extratropical | -- | 1010 |
| 10/10 | 18:00 | EXCiclone extratropical | -- | 1008 |
| 10/10 | 15:00 | EXCiclone extratropical | -- | 1006 |
| 10/10 | 12:00 | EXCiclone extratropical | 55 | 1004 |
| 10/10 | 09:00 | EXCiclone extratropical | 65 | 1002 |
| 10/10 | 06:00 | EXCiclone extratropical | 70 | 1000 |
| 10/10 | 03:00 | EXCiclone extratropical | 70 | 998 |
| 10/10 | 00:00 | EXCiclone extratropical | 70 | 996 |
| 09/10 | 21:00 | TSTempestade tropical | 70 | 988 |
| 09/10 | 18:00 | EXCiclone extratropical | 70 | 988 |
| 09/10 | 15:00 | TSTempestade tropical | 80 | 977 |
| 09/10 | 12:00 | EXCiclone extratropical | 90 | 980 |
| 09/10 | 09:00 | STSTempestade tropical severa | 90 | 972 |
| 09/10 | 06:00 | EXCiclone extratropical | 150 | 972 |
| 09/10 | 03:00 | TTufão | 155 | 966 |
| 09/10 | 00:00 | EXCiclone extratropical | 155 | 965 |
| 08/10 | 21:00 | TTufão | 165 | 960 |
| 08/10 | 18:00 | TTufão | 175 | 960 |
| 08/10 | 15:00 | TTufão | 180 | 950 |
| 08/10 | 12:00 | STSupertufão | 185 | 940 |
| 08/10 | 09:00 | STSupertufão | 190 | 938 |
| 08/10 | 06:00 | STSupertufão | 195 | 935 |
| 08/10 | 03:00 | STSupertufão | 200 | 935 |
| 08/10 | 00:00 | STSupertufão | 205 | 935 |
| 07/10 | 21:00 | STSupertufão | 205 | 933 |
| 07/10 | 18:00 | STSupertufão | 205 | 930 |
| 07/10 | 15:00 | STSupertufão | 210 | 927 |
| 07/10 | 12:00 | STSupertufão | 215 | 925 |
| 07/10 | 09:00 | STSupertufão | 215 | 923 |
| 07/10 | 06:00 | STSupertufão | 215 | 920 |
| 07/10 | 03:00 | STSupertufão | 220 | 920 |
| 07/10 | 00:00 | STSupertufão | 220 | 920 |
| 06/10 | 21:00 | STSupertufão | 230 | 915 |
| 06/10 | 18:00 | STSupertufão | 230 | 910 |
| 06/10 | 15:00 | STSupertufão | 235 | 912 |
| 06/10 | 12:00 | STSupertufão | 240 | 915 |
| 06/10 | 09:00 | STSupertufão | 230 | 917 |
| 06/10 | 06:00 | STSupertufão | 220 | 920 |
| 06/10 | 03:00 | STSupertufão | 220 | 920 |
| 06/10 | 00:00 | STSupertufão | 215 | 920 |
| 05/10 | 21:00 | STSupertufão | 220 | 918 |
| 05/10 | 18:00 | STSupertufão | 230 | 920 |
| 05/10 | 15:00 | STSupertufão | 235 | 913 |
| 05/10 | 12:00 | STSupertufão | 240 | 905 |
| 05/10 | 09:00 | STSupertufão | 245 | 903 |
| 05/10 | 06:00 | STSupertufão | 250 | 905 |
| 05/10 | 03:00 | STSupertufão | 255 | 895 |
| 05/10 | 00:00 | STSupertufão | 260 | 895 |
| 04/10 | 21:00 | STSupertufão | 250 | 895 |
| 04/10 | 18:00 | STSupertufão | 240 | 900 |
| 04/10 | 15:00 | STSupertufão | 235 | 902 |
| 04/10 | 12:00 | STSupertufão | 230 | 905 |
| 04/10 | 09:00 | STSupertufão | 220 | 913 |
| 04/10 | 06:00 | STSupertufão | 205 | 920 |
| 04/10 | 03:00 | STSupertufão | 195 | 930 |
| 04/10 | 00:00 | STSupertufão | 185 | 940 |
| 03/10 | 21:00 | TTufão | 175 | 947 |
| 03/10 | 18:00 | TTufão | 165 | 955 |
| 03/10 | 15:00 | TTufão | 165 | 954 |
| 03/10 | 12:00 | TTufão | 155 | 955 |
| 03/10 | 09:00 | TTufão | 145 | 958 |
| 03/10 | 06:00 | TTufão | 130 | 960 |
| 03/10 | 03:00 | TTufão | 120 | 965 |
| 03/10 | 00:00 | STSTempestade tropical severa | 110 | 970 |
| 02/10 | 21:00 | STSTempestade tropical severa | 100 | 976 |
| 02/10 | 18:00 | STSTempestade tropical severa | 95 | 985 |
| 02/10 | 15:00 | STSTempestade tropical severa | 90 | 988 |
| 02/10 | 12:00 | TSTempestade tropical | 85 | 990 |
| 02/10 | 09:00 | TSTempestade tropical | 80 | 992 |
| 02/10 | 06:00 | TSTempestade tropical | 75 | 994 |
| 02/10 | 03:00 | TSTempestade tropical | 65 | 994 |
| 02/10 | 00:00 | TDDepressão tropical | 55 | 1000 |
| 01/10 | 21:00 | TDDepressão tropical | 55 | 999 |
| 01/10 | 18:00 | TDDepressão tropical | 55 | 1000 |
| 01/10 | 15:00 | TDDepressão tropical | 50 | 1001 |
| 01/10 | 12:00 | TDDepressão tropical | 45 | 1002 |
| 01/10 | 09:00 | TDDepressão tropical | 45 | 1003 |
| 01/10 | 06:00 | TDDepressão tropical | 35 | 1004 |
| 01/10 | 03:00 | TDDepressão tropical | 35 | -- |
| 01/10 | 00:00 | TDDepressão tropical | 35 | -- |
| 30/09 | 21:00 | TDDepressão tropical | -- | -- |
| 30/09 | 18:00 | TDDepressão tropical | -- | -- |
| 30/09 | 15:00 | TDDepressão tropical | -- | -- |
| 30/09 | 12:00 | TDDepressão tropical | -- | -- |
| 30/09 | 09:00 | TDDepressão tropical | -- | -- |
| 30/09 | 06:00 | TDDepressão tropical | -- | -- |
| 30/09 | 03:00 | TDDepressão tropical | -- | -- |
| 30/09 | 00:00 | TDDepressão tropical | -- | -- |
| 29/09 | 21:00 | TDDepressão tropical | -- | -- |
| 29/09 | 18:00 | TDDepressão tropical | -- | -- |
| 29/09 | 15:00 | TDDepressão tropical | -- | -- |
| 29/09 | 12:00 | TDDepressão tropical | -- | -- |
| 29/09 | 09:00 | TDDepressão tropical | -- | -- |
| 29/09 | 06:00 | TDDepressão tropical | -- | -- |
| 29/09 | 03:00 | TDDepressão tropical | -- | -- |
| 29/09 | 00:00 | TDDepressão tropical | -- | -- |
Cronologia de localização
109 Registos de localizaçãoDetalhes do evento
Ligações das fontes
A localização, a extensão e o estado de cada evento podem ser atualizados em momentos diferentes consoante a fonte. Confirme decisões importantes junto das autoridades oficiais de emergência.
Os registos de eventos provêm da NASA EONET e são complementados por registos de deslizamentos de terra do USGS FDSN. As análises e previsões de tempestades podem utilizar a NOAA NHC ou o JTWC, com registos históricos ATCF da UCAR/NCAR quando disponíveis. As imagens de satélite provêm da NASA Worldview/GIBS (GOES e Himawari) ou da EUMETSAT Meteosat, consoante a cobertura do mapa.
Fontes: NASA EONET · USGS · NOAA NHC · JTWC · UCAR/NCAR ATCF · NASA Worldview/GIBS · EUMETSAT Meteosat · OpenStreetMap contributors